Time;durP1;ratioP1;P1;durP2;ratioP2;P2;SDS_P1;SDS_P2;PMS_P1;PMS_P2;Temp;Humidity;BMP_temperature;BMP_pressure;BME280_temperature;BME280_humidity;BME280_pressure;Samples;Min_cycle;Max_cycle;Signal;HPM_P1;HPM_P2
2023/08/16 00:00:32;;;;;;;5.28;2.85;;;;;;;;;;4992334;28;99244;-69
2023/08/16 00:02:58;;;;;;;3.08;2.78;;;;;;;;;;4988875;28;99375;-68
2023/08/16 00:05:25;;;;;;;4.63;2.85;;;;;;;;;;5005213;28;98945;-70
2023/08/16 00:07:51;;;;;;;3.10;2.80;;;;;;;;;;5008090;28;98050;-70
2023/08/16 00:10:18;;;;;;;3.40;3.08;;;;;;;;;;5007786;28;98534;-70
2023/08/16 00:12:44;;;;;;;4.35;2.70;;;;;;;;;;5009247;28;98839;-69
2023/08/16 00:15:11;;;;;;;7.45;3.17;;;;;;;;;;5008241;28;98240;-70
2023/08/16 00:17:37;;;;;;;3.35;2.70;;;;;;;;;;5008107;28;98612;-70
2023/08/16 00:20:04;;;;;;;4.22;3.33;;;;;;;;;;5008552;28;99028;-69
2023/08/16 00:22:31;;;;;;;2.85;2.58;;;;;;;;;;5009543;28;98065;-70
2023/08/16 00:24:57;;;;;;;3.17;2.97;;;;;;;;;;5008579;28;99034;-69
2023/08/16 00:27:24;;;;;;;5.10;3.40;;;;;;;;;;5008701;28;98205;-70
2023/08/16 00:29:51;;;;;;;4.70;3.38;;;;;;;;;;5007687;28;98743;-69
2023/08/16 00:32:17;;;;;;;4.90;3.25;;;;;;;;;;5007100;28;99912;-69
2023/08/16 00:34:43;;;;;;;5.00;3.40;;;;;;;;;;5009212;28;98222;-69
2023/08/16 00:37:11;;;;;;;4.70;4.13;;;;;;;;;;5009671;28;98335;-70
2023/08/16 00:39:38;;;;;;;6.88;4.57;;;;;;;;;;5009194;28;99143;-70
2023/08/16 00:42:04;;;;;;;3.83;3.53;;;;;;;;;;5013517;28;99435;-69
2023/08/16 00:44:31;;;;;;;5.20;4.18;;;;;;;;;;4990187;28;101127;-69
2023/08/16 00:46:57;;;;;;;8.98;4.03;;;;;;;;;;4992277;28;98319;-70
2023/08/16 00:49:24;;;;;;;4.18;3.78;;;;;;;;;;4992655;28;98323;-70
2023/08/16 00:51:51;;;;;;;5.50;3.92;;;;;;;;;;4990772;28;99102;-70
2023/08/16 00:54:17;;;;;;;6.35;3.88;;;;;;;;;;4991934;28;98259;-70
2023/08/16 00:56:44;;;;;;;4.88;3.72;;;;;;;;;;4990759;28;100455;-69
2023/08/16 00:59:12;;;;;;;4.70;3.80;;;;;;;;;;4991700;28;98983;-70
2023/08/16 01:01:38;;;;;;;5.07;4.30;;;;;;;;;;4990729;28;98517;-69
2023/08/16 01:04:05;;;;;;;8.38;4.65;;;;;;;;;;4994278;28;99688;-69
2023/08/16 01:06:31;;;;;;;8.60;4.75;;;;;;;;;;4989842;28;98269;-70
2023/08/16 01:08:58;;;;;;;4.55;4.10;;;;;;;;;;4992080;28;98276;-70
2023/08/16 01:11:25;;;;;;;7.45;4.45;;;;;;;;;;4990723;28;99083;-69
2023/08/16 01:13:51;;;;;;;5.38;4.43;;;;;;;;;;4992990;28;98223;-70
2023/08/16 01:16:20;;;;;;;6.80;4.63;;;;;;;;;;4990008;28;98664;-70
2023/08/16 01:18:46;;;;;;;4.32;3.80;;;;;;;;;;4992033;28;98681;-69
2023/08/16 01:21:15;;;;;;;10.00;4.30;;;;;;;;;;4989934;28;99191;-69
2023/08/16 01:24:00;;;;;;;3.65;3.35;;;;;;;;;;4990409;28;99601;-68
2023/08/16 01:26:26;;;;;;;4.40;4.00;;;;;;;;;;4993858;28;99062;-70
2023/08/16 01:28:53;;;;;;;4.10;3.80;;;;;;;;;;4992203;28;98782;-70
2023/08/16 01:31:20;;;;;;;5.45;3.70;;;;;;;;;;4990641;28;99895;-70
2023/08/16 01:33:47;;;;;;;4.10;3.70;;;;;;;;;;4990976;28;98441;-70
2023/08/16 01:36:13;;;;;;;9.38;4.70;;;;;;;;;;4990362;28;99421;-71
2023/08/16 01:38:40;;;;;;;5.13;4.63;;;;;;;;;;4991838;28;98747;-70
2023/08/16 01:41:20;;;;;;;7.72;4.65;;;;;;;;;;4991000;28;98118;-70
2023/08/16 01:43:47;;;;;;;4.43;4.07;;;;;;;;;;4990670;28;98712;-70
2023/08/16 01:46:15;;;;;;;4.82;4.35;;;;;;;;;;4989674;28;99145;-69
2023/08/16 01:48:43;;;;;;;4.90;4.50;;;;;;;;;;4992037;28;98369;-70
2023/08/16 01:51:10;;;;;;;6.32;4.10;;;;;;;;;;4991289;28;99910;-69
2023/08/16 01:53:36;;;;;;;4.80;4.40;;;;;;;;;;4991802;28;98329;-70
2023/08/16 01:56:03;;;;;;;6.35;4.35;;;;;;;;;;4989243;28;100357;-70
2023/08/16 01:58:29;;;;;;;7.00;4.03;;;;;;;;;;4989845;28;98988;-70
2023/08/16 02:00:57;;;;;;;5.82;4.63;;;;;;;;;;4989994;28;98007;-70
2023/08/16 02:03:23;;;;;;;6.10;4.07;;;;;;;;;;4991196;28;98392;-70
2023/08/16 02:05:50;;;;;;;4.50;4.20;;;;;;;;;;4991175;28;98765;-69
2023/08/16 02:08:16;;;;;;;6.78;4.28;;;;;;;;;;4989511;28;98235;-70
2023/08/16 02:10:45;;;;;;;4.18;3.85;;;;;;;;;;4991249;28;100879;-70
2023/08/16 02:13:11;;;;;;;4.40;4.00;;;;;;;;;;4989553;28;98293;-69
2023/08/16 02:15:38;;;;;;;3.75;3.55;;;;;;;;;;4991770;28;98766;-70
2023/08/16 02:18:10;;;;;;;5.32;4.20;;;;;;;;;;4989898;28;100886;-69
2023/08/16 02:20:38;;;;;;;;;;;;;;;;;;4994454;28;98945;-70
2023/08/16 02:23:05;;;;;;;6.85;3.92;;;;;;;;;;5007216;28;128652;-70
2023/08/16 02:25:31;;;;;;;6.15;3.53;;;;;;;;;;5009469;28;99193;-70
2023/08/16 02:27:58;;;;;;;7.45;3.60;;;;;;;;;;5010929;28;98275;-70
2023/08/16 02:30:25;;;;;;;5.57;3.95;;;;;;;;;;5009903;28;98490;-69
2023/08/16 02:32:53;;;;;;;4.32;3.45;;;;;;;;;;5013745;28;98185;-69
2023/08/16 02:35:20;;;;;;;5.82;3.75;;;;;;;;;;5009538;28;98425;-69
2023/08/16 02:37:46;;;;;;;9.15;3.80;;;;;;;;;;5009043;28;98738;-69
2023/08/16 02:40:13;;;;;;;6.35;3.33;;;;;;;;;;5010683;28;98073;-69
2023/08/16 02:42:39;;;;;;;5.82;3.72;;;;;;;;;;5011001;28;98267;-69
2023/08/16 02:45:06;;;;;;;3.53;3.22;;;;;;;;;;5008776;28;101718;-70
2023/08/16 02:47:33;;;;;;;3.53;3.22;;;;;;;;;;5010750;28;98154;-69
2023/08/16 02:49:59;;;;;;;11.65;3.55;;;;;;;;;;5009288;28;99386;-68
2023/08/16 02:52:26;;;;;;;4.25;3.47;;;;;;;;;;5012018;28;99763;-69
2023/08/16 02:54:53;;;;;;;4.78;3.72;;;;;;;;;;4999959;28;100231;-70
2023/08/16 02:57:20;;;;;;;4.60;3.17;;;;;;;;;;4990213;28;98850;-71
2023/08/16 02:59:47;;;;;;;4.78;3.42;;;;;;;;;;4989286;28;98160;-70
2023/08/16 03:02:16;;;;;;;4.10;3.70;;;;;;;;;;4987581;28;100619;-70
2023/08/16 03:04:42;;;;;;;7.53;3.38;;;;;;;;;;4990280;28;98740;-70
2023/08/16 03:07:10;;;;;;;3.60;3.30;;;;;;;;;;4988205;28;98311;-68
2023/08/16 03:09:36;;;;;;;7.82;4.22;;;;;;;;;;4988269;28;101552;-68
2023/08/16 03:12:04;;;;;;;6.70;3.20;;;;;;;;;;4990812;28;98716;-70
2023/08/16 03:14:30;;;;;;;5.97;3.47;;;;;;;;;;4991494;28;98751;-70
2023/08/16 03:16:58;;;;;;;7.65;3.70;;;;;;;;;;4990195;28;98877;-70
2023/08/16 03:19:25;;;;;;;9.43;3.25;;;;;;;;;;4996361;28;98255;-70
2023/08/16 03:21:52;;;;;;;3.53;3.25;;;;;;;;;;4988477;28;100398;-70
2023/08/16 03:24:18;;;;;;;8.98;4.50;;;;;;;;;;4987669;28;99009;-71
2023/08/16 03:26:45;;;;;;;5.05;3.72;;;;;;;;;;4988146;28;98234;-70
2023/08/16 03:29:11;;;;;;;4.28;3.97;;;;;;;;;;4989278;28;98647;-69
2023/08/16 03:31:38;;;;;;;4.60;3.13;;;;;;;;;;4989835;28;99050;-69
2023/08/16 03:34:05;;;;;;;4.78;4.22;;;;;;;;;;4988507;28;98390;-70
2023/08/16 03:36:31;;;;;;;4.75;4.32;;;;;;;;;;4992131;28;100599;-71
2023/08/16 03:39:05;;;;;;;4.45;3.92;;;;;;;;;;4989039;28;98618;-70
2023/08/16 03:41:33;;;;;;;4.20;3.80;;;;;;;;;;4987262;28;98673;-69
2023/08/16 03:44:01;;;;;;;5.50;4.50;;;;;;;;;;4988629;28;99175;-69
2023/08/16 03:46:27;;;;;;;5.80;4.30;;;;;;;;;;4990129;28;98113;-70
2023/08/16 03:48:54;;;;;;;6.05;4.82;;;;;;;;;;4988618;28;98406;-70
2023/08/16 03:51:21;;;;;;;6.80;4.20;;;;;;;;;;4989307;28;99671;-71
2023/08/16 03:53:47;;;;;;;7.13;4.43;;;;;;;;;;4987919;28;98302;-70
2023/08/16 03:56:14;;;;;;;14.70;5.38;;;;;;;;;;4989056;28;98617;-70
2023/08/16 03:58:40;;;;;;;6.30;4.40;;;;;;;;;;4992731;28;98814;-69
2023/08/16 04:01:08;;;;;;;4.65;4.15;;;;;;;;;;4989711;28;98481;-70
2023/08/16 04:03:34;;;;;;;5.20;4.78;;;;;;;;;;4988879;28;98888;-70
2023/08/16 04:06:01;;;;;;;8.88;4.47;;;;;;;;;;4990045;28;99015;-70
2023/08/16 04:08:27;;;;;;;5.15;4.38;;;;;;;;;;4988410;28;98699;-70
2023/08/16 04:10:54;;;;;;;7.65;5.18;;;;;;;;;;4987464;28;101050;-70
2023/08/16 04:13:20;;;;;;;4.97;4.43;;;;;;;;;;4986577;28;98106;-70
2023/08/16 04:15:48;;;;;;;5.18;4.88;;;;;;;;;;4988820;28;98766;-70
2023/08/16 04:18:15;;;;;;;5.95;4.45;;;;;;;;;;4987388;28;100838;-69
2023/08/16 04:20:41;;;;;;;5.57;4.60;;;;;;;;;;4993029;28;98286;-70
2023/08/16 04:23:08;;;;;;;12.25;4.65;;;;;;;;;;4988251;28;98901;-70
2023/08/16 04:25:35;;;;;;;5.18;4.18;;;;;;;;;;4987421;28;98262;-70
2023/08/16 04:28:03;;;;;;;5.18;4.78;;;;;;;;;;4988124;28;98422;-70
2023/08/16 04:30:29;;;;;;;6.60;4.88;;;;;;;;;;4986490;28;101000;-69
2023/08/16 04:32:56;;;;;;;8.70;5.03;;;;;;;;;;4988125;28;98293;-69
2023/08/16 04:35:23;;;;;;;13.95;5.30;;;;;;;;;;4988933;28;98557;-69
2023/08/16 04:37:50;;;;;;;7.88;4.90;;;;;;;;;;4986668;28;99105;-70
2023/08/16 04:40:17;;;;;;;5.32;4.38;;;;;;;;;;4990268;28;98163;-71
2023/08/16 04:42:44;;;;;;;6.43;4.75;;;;;;;;;;4988884;28;98868;-70
2023/08/16 04:45:11;;;;;;;7.65;4.55;;;;;;;;;;4986938;28;98182;-69
2023/08/16 04:47:37;;;;;;;5.05;4.65;;;;;;;;;;4987699;28;101116;-69
2023/08/16 04:50:06;;;;;;;6.25;4.65;;;;;;;;;;4988962;28;99010;-69
2023/08/16 04:52:33;;;;;;;6.30;4.97;;;;;;;;;;5000211;28;98305;-69
2023/08/16 04:55:04;;;;;;;5.18;4.80;;;;;;;;;;4988357;28;100291;-68
2023/08/16 04:57:31;;;;;;;7.25;4.35;;;;;;;;;;4987097;28;101087;-70
2023/08/16 04:59:58;;;;;;;5.50;4.45;;;;;;;;;;4986902;28;98252;-70
2023/08/16 05:02:25;;;;;;;9.25;4.95;;;;;;;;;;4989465;28;98705;-69
2023/08/16 05:04:52;;;;;;;6.88;5.22;;;;;;;;;;4987080;28;98398;-69
2023/08/16 05:07:19;;;;;;;5.85;4.70;;;;;;;;;;4987483;28;100428;-69
2023/08/16 05:09:45;;;;;;;5.63;4.40;;;;;;;;;;4988166;28;98715;-70
2023/08/16 05:12:12;;;;;;;13.60;4.95;;;;;;;;;;4988218;28;98188;-69
2023/08/16 05:14:38;;;;;;;10.63;4.63;;;;;;;;;;4987466;28;100742;-69
2023/08/16 05:17:05;;;;;;;8.38;4.68;;;;;;;;;;4988528;28;98703;-69
2023/08/16 05:19:31;;;;;;;4.50;4.07;;;;;;;;;;4986621;28;98224;-70
2023/08/16 05:21:57;;;;;;;8.57;3.83;;;;;;;;;;4986980;28;100449;-70
2023/08/16 05:24:24;;;;;;;12.05;4.47;;;;;;;;;;4992234;28;99025;-70
2023/08/16 05:26:50;;;;;;;5.88;3.97;;;;;;;;;;5001866;28;99483;-69
2023/08/16 05:29:17;;;;;;;5.10;4.20;;;;;;;;;;5010549;28;100114;-70
2023/08/16 05:31:43;;;;;;;6.47;4.30;;;;;;;;;;5000819;28;98338;-70
2023/08/16 05:34:10;;;;;;;7.30;4.32;;;;;;;;;;4992557;28;98473;-70
2023/08/16 05:36:45;;;;;;;5.03;4.10;;;;;;;;;;4991480;28;99428;-69
2023/08/16 05:39:12;;;;;;;9.95;3.97;;;;;;;;;;4991421;28;98232;-69
2023/08/16 05:41:38;;;;;;;4.63;4.30;;;;;;;;;;4990826;28;99578;-70
2023/08/16 05:44:05;;;;;;;8.18;4.18;;;;;;;;;;4991785;28;98964;-70
2023/08/16 05:46:31;;;;;;;4.45;3.80;;;;;;;;;;5014375;28;98294;-69
2023/08/16 05:49:00;;;;;;;6.63;4.00;;;;;;;;;;5010329;28;98984;-69
2023/08/16 05:51:27;;;;;;;6.55;4.88;;;;;;;;;;4997251;28;98245;-69
2023/08/16 05:53:53;;;;;;;5.22;4.15;;;;;;;;;;5008655;28;99371;-68
2023/08/16 05:56:20;;;;;;;8.93;3.95;;;;;;;;;;5010240;28;100203;-70
2023/08/16 05:58:46;;;;;;;4.75;3.50;;;;;;;;;;5011369;28;98458;-69
2023/08/16 06:01:12;;;;;;;7.88;3.50;;;;;;;;;;5001383;28;98703;-70
2023/08/16 06:03:39;;;;;;;9.50;4.15;;;;;;;;;;4988066;28;98973;-69
2023/08/16 06:06:06;;;;;;;6.03;3.65;;;;;;;;;;4984560;28;98327;-69
2023/08/16 06:08:32;;;;;;;4.97;3.65;;;;;;;;;;4990255;28;98607;-70
2023/08/16 06:11:01;;;;;;;4.95;3.45;;;;;;;;;;4976653;28;99473;-69
2023/08/16 06:13:27;;;;;;;8.43;3.40;;;;;;;;;;4990598;28;98877;-68
2023/08/16 06:15:54;;;;;;;4.88;3.60;;;;;;;;;;4989553;28;99062;-68
2023/08/16 06:18:20;;;;;;;5.03;3.65;;;;;;;;;;4989791;28;98362;-69
2023/08/16 06:20:47;;;;;;;7.85;3.50;;;;;;;;;;4991362;28;98630;-69
2023/08/16 06:23:13;;;;;;;4.25;3.38;;;;;;;;;;4989924;28;99891;-70
2023/08/16 06:25:39;;;;;;;4.30;3.63;;;;;;;;;;4990111;28;98334;-70
2023/08/16 06:28:06;;;;;;;5.47;3.78;;;;;;;;;;4990315;28;99208;-68
2023/08/16 06:30:32;;;;;;;10.50;4.03;;;;;;;;;;4986316;28;99109;-70
2023/08/16 06:32:59;;;;;;;4.32;3.70;;;;;;;;;;4991041;28;99700;-70
2023/08/16 06:35:25;;;;;;;7.30;3.67;;;;;;;;;;4990603;28;100178;-70
2023/08/16 06:37:52;;;;;;;7.53;3.78;;;;;;;;;;4990114;28;98235;-70
2023/08/16 06:40:18;;;;;;;5.18;3.38;;;;;;;;;;4989797;28;98392;-70
2023/08/16 06:42:45;;;;;;;5.25;3.13;;;;;;;;;;4991967;28;99184;-69
2023/08/16 06:45:14;;;;;;;2.83;2.28;;;;;;;;;;4989831;28;98610;-70
2023/08/16 06:47:42;;;;;;;4.53;2.60;;;;;;;;;;4988384;28;99260;-70
2023/08/16 06:50:09;;;;;;;5.85;2.95;;;;;;;;;;4978516;28;99101;-70
2023/08/16 06:52:35;;;;;;;6.82;2.75;;;;;;;;;;4991700;28;99031;-68
2023/08/16 06:55:02;;;;;;;3.20;2.40;;;;;;;;;;4980624;28;98889;-70
2023/08/16 06:57:28;;;;;;;9.35;2.65;;;;;;;;;;4969389;28;98226;-69
2023/08/16 06:59:55;;;;;;;4.35;2.47;;;;;;;;;;4986275;28;98826;-68
2023/08/16 07:02:24;;;;;;;3.28;2.45;;;;;;;;;;4974209;28;98971;-68
2023/08/16 07:04:54;;;;;;;2.55;2.35;;;;;;;;;;4968805;28;98192;-70
2023/08/16 07:07:20;;;;;;;5.65;2.70;;;;;;;;;;4977619;28;100795;-70
2023/08/16 07:09:47;;;;;;;2.50;2.33;;;;;;;;;;4979359;28;99469;-69
2023/08/16 07:12:13;;;;;;;3.10;2.45;;;;;;;;;;4992738;28;98488;-69
2023/08/16 07:14:39;;;;;;;12.80;2.70;;;;;;;;;;4989041;28;100219;-69
2023/08/16 07:17:06;;;;;;;5.22;2.30;;;;;;;;;;4981948;28;99707;-70
2023/08/16 07:19:32;;;;;;;3.35;2.42;;;;;;;;;;4969152;28;98766;-70
2023/08/16 07:21:59;;;;;;;4.35;2.10;;;;;;;;;;4971102;28;99117;-69
2023/08/16 07:24:25;;;;;;;9.38;2.42;;;;;;;;;;4978811;28;99666;-70
2023/08/16 07:26:52;;;;;;;3.85;2.55;;;;;;;;;;4973496;28;98590;-70
2023/08/16 07:29:19;;;;;;;1.67;1.58;;;;;;;;;;4973944;28;100065;-70
2023/08/16 07:31:48;;;;;;;4.00;2.10;;;;;;;;;;4978447;28;98901;-68
2023/08/16 07:34:15;;;;;;;6.25;2.03;;;;;;;;;;4984373;28;99511;-69
2023/08/16 07:36:42;;;;;;;6.03;1.70;;;;;;;;;;4978868;28;99255;-69
2023/08/16 07:39:09;;;;;;;4.45;1.70;;;;;;;;;;4983641;28;98684;-69
2023/08/16 07:41:35;;;;;;;4.30;1.65;;;;;;;;;;4983853;28;99437;-69
2023/08/16 07:44:03;;;;;;;6.43;1.55;;;;;;;;;;4988350;28;98271;-70
2023/08/16 07:46:29;;;;;;;4.95;1.33;;;;;;;;;;4986466;28;99635;-70
2023/08/16 07:48:58;;;;;;;3.95;1.40;;;;;;;;;;4969253;28;102993;-70
2023/08/16 07:51:24;;;;;;;6.07;1.30;;;;;;;;;;4970039;28;98217;-71
2023/08/16 07:53:51;;;;;;;2.65;1.10;;;;;;;;;;4968479;28;99669;-71
2023/08/16 07:56:17;;;;;;;3.38;0.90;;;;;;;;;;4972447;28;99084;-71
2023/08/16 07:58:43;;;;;;;2.80;1.15;;;;;;;;;;4986286;28;98461;-70
2023/08/16 08:01:10;;;;;;;1.63;1.20;;;;;;;;;;4988482;28;100244;-72
2023/08/16 08:03:36;;;;;;;1.55;1.02;;;;;;;;;;4989353;28;98222;-71
2023/08/16 08:06:03;;;;;;;3.67;1.25;;;;;;;;;;4989743;28;98925;-70
2023/08/16 08:08:29;;;;;;;1.98;0.75;;;;;;;;;;4987936;28;100054;-70
2023/08/16 08:10:56;;;;;;;1.23;1.13;;;;;;;;;;4989246;28;98534;-70
2023/08/16 08:13:22;;;;;;;1.08;0.93;;;;;;;;;;4988729;28;99387;-70
2023/08/16 08:15:49;;;;;;;2.28;0.85;;;;;;;;;;4988516;28;99185;-71
2023/08/16 08:18:15;;;;;;;7.78;1.20;;;;;;;;;;4991465;28;98247;-70
2023/08/16 08:20:42;;;;;;;3.42;1.35;;;;;;;;;;4988819;28;100318;-68
2023/08/16 08:23:08;;;;;;;4.90;1.02;;;;;;;;;;4988081;28;98280;-69
2023/08/16 08:25:34;;;;;;;2.03;0.93;;;;;;;;;;4988746;28;98537;-69
2023/08/16 08:28:01;;;;;;;5.85;1.58;;;;;;;;;;4988929;28;100111;-69
2023/08/16 08:30:28;;;;;;;2.42;1.30;;;;;;;;;;4988107;28;98272;-70
2023/08/16 08:32:57;;;;;;;1.73;1.05;;;;;;;;;;4989465;28;98402;-69
2023/08/16 08:35:24;;;;;;;3.13;1.25;;;;;;;;;;4988625;28;98879;-68
2023/08/16 08:37:51;;;;;;;1.27;0.80;;;;;;;;;;4988167;28;98270;-70
2023/08/16 08:40:20;;;;;;;2.17;0.90;;;;;;;;;;4991654;28;99707;-69
2023/08/16 08:42:48;;;;;;;0.95;0.70;;;;;;;;;;4987639;28;98434;-70
2023/08/16 08:45:15;;;;;;;2.95;0.80;;;;;;;;;;4988473;28;99732;-70
2023/08/16 08:47:43;;;;;;;2.83;1.10;;;;;;;;;;4988571;28;99006;-69
2023/08/16 08:50:10;;;;;;;3.15;1.52;;;;;;;;;;4988280;28;98257;-69
2023/08/16 08:52:36;;;;;;;3.65;0.60;;;;;;;;;;4988654;28;99760;-69
2023/08/16 08:55:03;;;;;;;2.13;0.80;;;;;;;;;;4988783;28;99906;-68
2023/08/16 08:57:29;;;;;;;4.47;1.05;;;;;;;;;;4990963;28;99183;-70
2023/08/16 09:00:00;;;;;;;1.35;0.90;;;;;;;;;;4994313;28;98902;-68
2023/08/16 09:02:30;;;;;;;1.58;0.90;;;;;;;;;;4992046;28;98805;-68
2023/08/16 09:04:59;;;;;;;0.98;0.82;;;;;;;;;;4992401;28;98828;-69
2023/08/16 09:07:26;;;;;;;1.17;0.85;;;;;;;;;;4991803;28;99181;-69
2023/08/16 09:09:52;;;;;;;1.95;0.93;;;;;;;;;;4991411;28;98370;-68
2023/08/16 09:12:19;;;;;;;2.28;1.35;;;;;;;;;;4995889;28;98555;-69
2023/08/16 09:14:45;;;;;;;0.90;0.80;;;;;;;;;;5000597;28;99997;-70
2023/08/16 09:17:12;;;;;;;1.75;1.00;;;;;;;;;;4991786;28;98320;-69
2023/08/16 09:19:43;;;;;;;2.08;0.88;;;;;;;;;;4990895;28;99502;-68
2023/08/16 09:22:10;;;;;;;3.38;0.90;;;;;;;;;;4995101;28;99593;-69
2023/08/16 09:24:36;;;;;;;2.65;0.98;;;;;;;;;;4990903;28;98549;-69
2023/08/16 09:27:03;;;;;;;2.15;1.00;;;;;;;;;;4990800;28;99079;-69
2023/08/16 09:29:30;;;;;;;1.02;0.70;;;;;;;;;;4991562;28;97990;-70
2023/08/16 09:31:57;;;;;;;2.58;1.02;;;;;;;;;;4990130;28;99886;-68
2023/08/16 09:34:24;;;;;;;2.97;0.75;;;;;;;;;;4997356;28;100090;-69
2023/08/16 09:36:54;;;;;;;3.60;0.88;;;;;;;;;;5011475;28;98450;-69
2023/08/16 09:39:24;;;;;;;1.08;0.70;;;;;;;;;;5010359;28;99445;-70
2023/08/16 09:41:51;;;;;;;1.17;0.70;;;;;;;;;;5011466;28;99929;-68
2023/08/16 09:44:18;;;;;;;0.60;0.50;;;;;;;;;;5014106;28;98239;-69
2023/08/16 09:46:46;;;;;;;0.80;0.70;;;;;;;;;;5010385;28;99191;-68
2023/08/16 09:49:15;;;;;;;0.55;0.50;;;;;;;;;;5011515;28;98202;-69
2023/08/16 09:51:45;;;;;;;1.33;0.70;;;;;;;;;;5011107;28;98433;-68
2023/08/16 09:54:16;;;;;;;0.70;0.70;;;;;;;;;;5009932;28;99999;-68
2023/08/16 09:56:44;;;;;;;1.35;0.77;;;;;;;;;;5009467;28;99346;-69
2023/08/16 09:59:13;;;;;;;11.20;1.00;;;;;;;;;;4985338;28;101697;-69
2023/08/16 10:01:43;;;;;;;1.00;0.55;;;;;;;;;;4991178;28;98954;-69
2023/08/16 10:04:13;;;;;;;1.25;0.68;;;;;;;;;;4990965;28;98205;-68
2023/08/16 10:06:42;;;;;;;2.20;0.63;;;;;;;;;;4994637;28;98475;-69
2023/08/16 10:09:29;;;;;;;1.05;0.80;;;;;;;;;;4989532;28;98717;-69
2023/08/16 10:11:56;;;;;;;1.33;0.75;;;;;;;;;;4990685;28;99645;-69
2023/08/16 10:14:22;;;;;;;1.98;0.98;;;;;;;;;;4989711;28;98977;-69
2023/08/16 10:16:53;;;;;;;0.77;0.63;;;;;;;;;;4991101;28;98228;-69
2023/08/16 10:19:23;;;;;;;3.08;0.65;;;;;;;;;;4990793;28;98526;-69
2023/08/16 10:21:50;;;;;;;1.13;0.68;;;;;;;;;;4989161;28;99157;-69
2023/08/16 10:24:17;;;;;;;0.60;0.60;;;;;;;;;;4990778;28;98136;-69
2023/08/16 10:27:00;;;;;;;1.75;0.85;;;;;;;;;;4990927;28;98638;-69
2023/08/16 10:29:31;;;;;;;0.70;0.60;;;;;;;;;;4993453;28;99481;-69
2023/08/16 10:31:57;;;;;;;0.63;0.63;;;;;;;;;;4991365;28;98569;-69
2023/08/16 10:34:24;;;;;;;1.35;0.90;;;;;;;;;;4990028;28;99473;-69
2023/08/16 10:36:51;;;;;;;4.47;0.82;;;;;;;;;;4990037;28;98390;-70
2023/08/16 10:39:22;;;;;;;5.00;0.90;;;;;;;;;;4990584;28;98563;-70
2023/08/16 10:41:50;;;;;;;0.60;0.60;;;;;;;;;;4990292;28;99010;-70
2023/08/16 10:44:23;;;;;;;0.73;0.73;;;;;;;;;;4986802;28;99056;-70
2023/08/16 10:46:50;;;;;;;0.77;0.70;;;;;;;;;;4990020;28;98627;-70
2023/08/16 10:49:18;;;;;;;1.65;1.15;;;;;;;;;;4989823;28;99119;-70
2023/08/16 10:51:48;;;;;;;3.40;1.08;;;;;;;;;;4993270;28;98177;-70
2023/08/16 10:54:15;;;;;;;3.17;1.38;;;;;;;;;;4990462;28;98885;-70
2023/08/16 10:56:47;;;;;;;2.05;1.02;;;;;;;;;;4983304;28;98350;-70
2023/08/16 10:59:15;;;;;;;0.88;0.63;;;;;;;;;;4970270;28;99721;-69
2023/08/16 11:01:45;;;;;;;2.05;0.75;;;;;;;;;;4970791;28;99140;-70
2023/08/16 11:04:12;;;;;;;1.65;0.80;;;;;;;;;;4969647;28;98336;-69
2023/08/16 11:06:39;;;;;;;2.70;0.82;;;;;;;;;;4970483;28;99594;-69
2023/08/16 11:09:17;;;;;;;1.63;0.88;;;;;;;;;;4967901;28;100113;-69
2023/08/16 11:11:45;;;;;;;0.65;0.65;;;;;;;;;;4973619;28;98734;-70
2023/08/16 11:14:12;;;;;;;2.08;0.90;;;;;;;;;;4969818;28;99944;-69
2023/08/16 11:16:38;;;;;;;6.88;0.90;;;;;;;;;;4973128;28;98226;-69
2023/08/16 11:19:08;;;;;;;2.40;0.90;;;;;;;;;;4977964;28;98987;-69
2023/08/16 11:21:47;;;;;;;1.15;0.73;;;;;;;;;;4987077;28;100075;-69
2023/08/16 11:24:13;;;;;;;2.40;0.98;;;;;;;;;;4988581;28;98155;-71
2023/08/16 11:26:40;;;;;;;1.88;0.77;;;;;;;;;;4988929;28;99382;-69
2023/08/16 11:29:06;;;;;;;1.48;1.00;;;;;;;;;;4989615;28;100082;-69
2023/08/16 11:31:34;;;;;;;1.45;1.20;;;;;;;;;;4989063;28;98606;-69
2023/08/16 11:34:00;;;;;;;1.23;0.90;;;;;;;;;;4993197;28;98876;-69
2023/08/16 11:36:27;;;;;;;1.27;0.60;;;;;;;;;;4988765;28;98220;-70
2023/08/16 11:38:53;;;;;;;1.42;0.70;;;;;;;;;;4988854;28;98610;-70
2023/08/16 11:41:21;;;;;;;0.63;0.63;;;;;;;;;;4989157;28;100025;-69
2023/08/16 11:43:56;;;;;;;1.45;0.70;;;;;;;;;;4989634;28;98231;-71
2023/08/16 11:46:22;;;;;;;1.35;0.68;;;;;;;;;;4982660;28;100049;-69
2023/08/16 11:48:49;;;;;;;0.88;0.80;;;;;;;;;;4970231;28;100166;-70
2023/08/16 11:51:17;;;;;;;2.67;0.98;;;;;;;;;;4986389;28;98299;-69
2023/08/16 11:53:44;;;;;;;1.35;0.93;;;;;;;;;;4986284;28;99645;-70
2023/08/16 11:56:11;;;;;;;0.70;0.70;;;;;;;;;;4991390;28;100035;-70
2023/08/16 11:58:45;;;;;;;1.58;0.70;;;;;;;;;;4990136;28;99371;-70
2023/08/16 12:01:14;;;;;;;0.88;0.57;;;;;;;;;;4987882;28;99140;-69
2023/08/16 12:03:44;;;;;;;1.17;0.70;;;;;;;;;;4988856;28;98913;-69
2023/08/16 12:06:12;;;;;;;1.58;0.80;;;;;;;;;;4988282;28;99361;-69
2023/08/16 12:08:51;;;;;;;0.90;0.90;;;;;;;;;;4987456;28;99943;-70
2023/08/16 12:11:30;;;;;;;1.75;1.00;;;;;;;;;;4983047;28;98232;-70
2023/08/16 12:13:57;;;;;;;1.00;0.80;;;;;;;;;;4979634;28;98597;-69
2023/08/16 12:16:23;;;;;;;0.88;0.80;;;;;;;;;;4974758;28;99159;-70
2023/08/16 12:18:50;;;;;;;1.88;1.00;;;;;;;;;;4991822;28;98189;-69
2023/08/16 12:21:16;;;;;;;0.80;0.80;;;;;;;;;;4988045;28;100064;-68
2023/08/16 12:23:43;;;;;;;2.90;0.95;;;;;;;;;;4988575;28;98201;-70
2023/08/16 12:26:09;;;;;;;1.58;1.17;;;;;;;;;;4987661;28;99940;-69
2023/08/16 12:28:36;;;;;;;8.18;0.93;;;;;;;;;;4987873;28;99987;-70
2023/08/16 12:31:04;;;;;;;2.95;1.00;;;;;;;;;;4988328;28;98219;-71
2023/08/16 12:33:31;;;;;;;6.20;0.80;;;;;;;;;;4989798;28;99363;-70
2023/08/16 12:35:58;;;;;;;0.90;0.70;;;;;;;;;;4991551;28;100266;-69
2023/08/16 12:38:24;;;;;;;2.10;1.00;;;;;;;;;;4991408;28;98518;-69
2023/08/16 12:40:51;;;;;;;1.83;0.85;;;;;;;;;;4987841;28;99713;-69
2023/08/16 12:43:18;;;;;;;1.15;0.82;;;;;;;;;;4990716;28;98351;-70
2023/08/16 12:45:45;;;;;;;1.80;0.70;;;;;;;;;;4992247;28;99279;-69
2023/08/16 12:48:12;;;;;;;0.77;0.70;;;;;;;;;;4991590;28;99055;-69
2023/08/16 12:50:38;;;;;;;0.65;0.65;;;;;;;;;;4990140;28;98312;-69
2023/08/16 12:53:05;;;;;;;0.52;0.52;;;;;;;;;;4992035;28;99687;-69
2023/08/16 12:55:52;;;;;;;1.60;0.55;;;;;;;;;;4991227;28;100286;-70
2023/08/16 12:58:18;;;;;;;1.10;0.90;;;;;;;;;;4989444;28;98277;-69
2023/08/16 13:00:47;;;;;;;1.02;0.93;;;;;;;;;;4983866;28;99696;-70
2023/08/16 13:03:13;;;;;;;2.63;1.13;;;;;;;;;;4987567;28;99725;-69
2023/08/16 13:05:41;;;;;;;1.23;1.23;;;;;;;;;;4986581;28;98840;-70
2023/08/16 13:08:21;;;;;;;0.77;0.77;;;;;;;;;;4972279;28;100459;-70
2023/08/16 13:10:50;;;;;;;1.13;0.73;;;;;;;;;;4985590;28;98468;-70
2023/08/16 13:13:20;;;;;;;2.55;0.77;;;;;;;;;;4991760;28;98582;-69
2023/08/16 13:15:57;;;;;;;0.55;0.45;;;;;;;;;;4990803;28;99016;-69
2023/08/16 13:18:27;;;;;;;0.82;0.73;;;;;;;;;;4990650;28;98691;-69
2023/08/16 13:21:10;;;;;;;0.77;0.70;;;;;;;;;;4990884;28;99359;-70
2023/08/16 13:23:39;;;;;;;1.23;0.90;;;;;;;;;;4993632;28;98907;-69
2023/08/16 13:26:24;;;;;;;1.20;0.77;;;;;;;;;;4990656;28;99825;-68
2023/08/16 13:28:53;;;;;;;2.88;1.05;;;;;;;;;;4991237;28;100135;-68
2023/08/16 13:31:37;;;;;;;0.80;0.80;;;;;;;;;;4990892;28;98211;-68
2023/08/16 13:34:24;;;;;;;1.38;0.90;;;;;;;;;;4973770;28;99613;-68
2023/08/16 13:36:53;;;;;;;3.17;1.10;;;;;;;;;;4974922;28;99892;-69
2023/08/16 13:39:25;;;;;;;1.87;0.93;;;;;;;;;;4990829;28;98167;-68
2023/08/16 13:41:57;;;;;;;1.17;0.98;;;;;;;;;;4990416;28;99525;-69
2023/08/16 13:44:26;;;;;;;3.45;0.90;;;;;;;;;;4974482;28;100461;-69
2023/08/16 13:46:56;;;;;;;2.95;0.80;;;;;;;;;;4984756;28;98262;-70
2023/08/16 13:49:23;;;;;;;0.68;0.68;;;;;;;;;;4971340;28;100076;-69
2023/08/16 13:51:49;;;;;;;1.52;1.00;;;;;;;;;;4971415;28;98183;-68
2023/08/16 13:54:16;;;;;;;0.98;0.93;;;;;;;;;;4970576;28;99794;-69
2023/08/16 13:56:42;;;;;;;0.85;0.80;;;;;;;;;;4979846;28;99281;-68
2023/08/16 13:59:14;;;;;;;2.08;1.00;;;;;;;;;;4990386;28;98204;-70
2023/08/16 14:01:41;;;;;;;0.73;0.73;;;;;;;;;;4990623;28;98747;-68
2023/08/16 14:04:08;;;;;;;1.95;0.90;;;;;;;;;;4990120;28;99832;-69
2023/08/16 14:06:34;;;;;;;1.20;0.75;;;;;;;;;;4989101;28;98283;-68
2023/08/16 14:09:01;;;;;;;1.73;1.00;;;;;;;;;;4989787;28;99614;-70
2023/08/16 14:11:27;;;;;;;1.23;0.60;;;;;;;;;;4976249;28;98226;-69
2023/08/16 14:13:55;;;;;;;8.70;1.02;;;;;;;;;;4972952;28;99671;-69
2023/08/16 14:16:22;;;;;;;1.70;0.98;;;;;;;;;;4974116;28;99373;-68
2023/08/16 14:18:48;;;;;;;1.52;0.95;;;;;;;;;;4969723;28;100552;-67
2023/08/16 14:21:15;;;;;;;2.60;1.05;;;;;;;;;;4977978;28;99602;-67
2023/08/16 14:23:41;;;;;;;0.88;0.85;;;;;;;;;;4972485;28;99307;-67
2023/08/16 14:26:07;;;;;;;0.70;0.70;;;;;;;;;;4977911;28;98273;-67
2023/08/16 14:28:34;;;;;;;2.17;1.00;;;;;;;;;;4981133;28;99497;-67
2023/08/16 14:31:00;;;;;;;2.58;0.90;;;;;;;;;;4979806;28;99053;-68
2023/08/16 14:33:27;;;;;;;0.60;0.60;;;;;;;;;;4976674;28;98458;-67
2023/08/16 14:35:54;;;;;;;2.85;1.27;;;;;;;;;;4967834;28;101052;-67
2023/08/16 14:38:20;;;;;;;1.35;0.98;;;;;;;;;;4978300;28;98364;-68
2023/08/16 14:40:47;;;;;;;0.80;0.80;;;;;;;;;;4973448;28;98952;-68
2023/08/16 14:43:13;;;;;;;2.45;2.05;;;;;;;;;;4979453;28;99870;-68